createdAt,value
2023-03-01T00:02:24.161Z,100544.47
2023-03-01T00:04:54.342Z,100515.69
2023-03-01T00:07:23.927Z,100531.59
2023-03-01T00:09:53.515Z,100529.59
2023-03-01T00:12:23.529Z,100526.78
2023-03-01T00:14:53.290Z,100516.31
2023-03-01T00:17:22.906Z,100531.19
2023-03-01T00:19:52.586Z,100521.91
2023-03-01T00:22:22.240Z,100529.97
2023-03-01T00:24:51.893Z,100525.16
2023-03-01T00:27:21.607Z,100520.31
2023-03-01T00:29:51.232Z,100519.91
2023-03-01T00:32:20.947Z,100520.31
2023-03-01T00:34:56.668Z,100519.50
2023-03-01T00:37:27.218Z,100517.50
2023-03-01T00:39:56.843Z,100531.53
2023-03-01T00:42:26.487Z,100513.94
2023-03-01T00:44:56.075Z,100514.31
2023-03-01T00:47:25.746Z,100515.13
2023-03-01T00:49:55.314Z,100486.69
2023-03-01T00:52:24.849Z,100515.06
2023-03-01T00:54:56.164Z,100489.94
2023-03-01T00:57:25.924Z,100511.44
2023-03-01T00:59:55.965Z,100513.06
2023-03-01T01:02:25.798Z,100510.69
2023-03-01T01:04:57.799Z,100509.06
2023-03-01T01:07:27.762Z,100507.88
2023-03-01T01:09:57.757Z,100507.47
2023-03-01T01:12:27.338Z,100505.47
2023-03-01T01:14:56.980Z,100507.88
2023-03-01T01:17:26.837Z,100514.69
2023-03-01T01:19:56.488Z,100496.66
2023-03-01T01:22:26.051Z,100502.69
2023-03-01T01:24:55.704Z,100506.69
2023-03-01T01:27:25.293Z,100507.50
2023-03-01T01:29:56.570Z,100506.69
2023-03-01T01:32:27.359Z,100503.09
2023-03-01T01:34:57.394Z,100507.50
2023-03-01T01:37:33.671Z,100505.47
2023-03-01T01:40:06.819Z,100499.47
2023-03-01T01:42:36.449Z,100503.47
2023-03-01T01:45:38.050Z,100510.69
2023-03-01T01:48:14.559Z,100510.75
2023-03-01T01:50:47.444Z,100502.69
2023-03-01T01:53:21.516Z,100497.91
2023-03-01T01:56:01.582Z,100497.91
2023-03-01T01:58:33.279Z,100499.94
2023-03-01T02:01:04.194Z,100502.75
2023-03-01T02:03:39.855Z,100504.38
2023-03-01T02:06:42.649Z,100506.38
2023-03-01T02:09:17.194Z,100465.56
2023-03-01T02:11:47.926Z,100493.97
2023-03-01T02:14:19.130Z,100495.56
2023-03-01T02:16:49.448Z,100494.38
2023-03-01T02:19:36.257Z,100493.56
2023-03-01T02:22:21.075Z,100490.78
2023-03-01T02:25:23.994Z,100498.81
2023-03-01T02:28:23.255Z,100507.22
2023-03-01T02:31:11.626Z,100502.44
2023-03-01T02:33:43.032Z,100498.38
2023-03-01T02:36:26.594Z,100461.56
2023-03-01T02:38:59.306Z,100486.28
2023-03-01T02:41:31.959Z,100486.72
2023-03-01T02:44:01.650Z,100475.50
2023-03-01T02:46:32.164Z,100483.50
2023-03-01T02:49:02.524Z,100481.88
2023-03-01T02:52:16.196Z,100491.53
2023-03-01T02:55:02.254Z,100481.91
2023-03-01T02:57:33.767Z,100480.69
2023-03-01T03:00:21.822Z,100481.09
2023-03-01T03:02:54.537Z,100483.50
2023-03-01T03:05:29.326Z,100483.91
2023-03-01T03:07:59.817Z,100483.91
2023-03-01T03:10:36.468Z,100457.63
2023-03-01T03:13:09.584Z,100488.34
2023-03-01T03:15:41.050Z,100491.16
2023-03-01T03:18:16.724Z,100477.13
2023-03-01T03:20:47.643Z,100469.88
2023-03-01T03:23:17.441Z,100446.34
2023-03-01T03:25:47.155Z,100469.06
2023-03-01T03:28:18.889Z,100465.84
2023-03-01T03:30:49.483Z,100452.22
2023-03-01T03:33:19.186Z,100449.44
2023-03-01T03:35:51.345Z,100446.19
2023-03-01T03:38:24.400Z,100434.59
2023-03-01T03:41:06.965Z,100438.56
2023-03-01T03:43:39.117Z,100432.19
2023-03-01T03:46:10.112Z,100426.16
2023-03-01T03:48:47.826Z,100423.53
2023-03-01T03:51:19.745Z,100423.91
2023-03-01T03:53:49.393Z,100417.94
2023-03-01T03:56:19.082Z,100387.19
2023-03-01T03:58:49.602Z,100416.00
2023-03-01T04:01:19.248Z,100416.84
2023-03-01T04:03:51.446Z,100397.19
2023-03-01T04:06:21.115Z,100399.66
2023-03-01T04:08:53.519Z,100385.28
2023-03-01T04:11:28.949Z,100386.88
2023-03-01T04:14:01.417Z,100380.09
2023-03-01T04:16:31.455Z,100374.09
2023-03-01T04:19:03.113Z,100377.31
2023-03-01T04:21:32.798Z,100373.75
2023-03-01T04:24:02.428Z,100371.75
2023-03-01T04:26:32.686Z,100368.22
2023-03-01T04:29:02.728Z,100355.03
2023-03-01T04:31:32.469Z,100355.88
2023-03-01T04:34:02.627Z,100348.66
2023-03-01T04:36:33.188Z,100356.72
2023-03-01T04:39:14.483Z,100354.28
2023-03-01T04:41:45.801Z,100349.84
2023-03-01T04:44:15.835Z,100354.69
2023-03-01T04:46:45.422Z,100342.72
2023-03-01T04:49:15.492Z,100346.75
2023-03-01T04:51:45.704Z,100343.13
2023-03-01T04:54:15.315Z,100345.16
2023-03-01T04:56:44.913Z,100349.56
2023-03-01T04:59:15.168Z,100338.38
2023-03-01T05:01:45.438Z,100335.97
2023-03-01T05:04:16.027Z,100328.72
2023-03-01T05:06:46.211Z,100334.03
2023-03-01T05:09:15.764Z,100327.22
2023-03-01T05:11:45.509Z,100321.59
2023-03-01T05:14:15.163Z,100336.06
2023-03-01T05:16:44.823Z,100330.03
2023-03-01T05:19:17.745Z,100322.81
2023-03-01T05:22:07.529Z,100330.84
2023-03-01T05:24:38.371Z,100330.44
2023-03-01T05:27:08.869Z,100336.09
2023-03-01T05:29:38.517Z,100338.47
2023-03-01T05:32:08.374Z,100328.44
2023-03-01T05:34:39.735Z,100354.19
2023-03-01T05:37:10.201Z,100337.72
2023-03-01T05:39:40.366Z,100336.50
2023-03-01T05:42:13.283Z,100331.69
2023-03-01T05:44:42.999Z,100324.88
2023-03-01T05:47:12.833Z,100346.56
2023-03-01T05:49:42.427Z,100296.56
2023-03-01T05:52:12.220Z,100328.53
2023-03-01T05:54:41.817Z,100324.91
2023-03-01T05:57:11.569Z,100320.09
2023-03-01T05:59:41.275Z,100322.09
2023-03-01T06:02:11.030Z,100327.31
2023-03-01T06:04:40.829Z,100327.72
2023-03-01T06:07:10.780Z,100329.78
2023-03-01T06:09:40.353Z,100324.94
2023-03-01T06:12:10.021Z,100324.53
2023-03-01T06:14:39.815Z,100322.59
2023-03-01T06:17:09.449Z,100325.78
2023-03-01T06:19:39.029Z,100329.44
2023-03-01T06:22:09.622Z,100337.50
2023-03-01T06:24:39.251Z,100338.78
2023-03-01T06:27:08.992Z,100332.00
2023-03-01T06:29:38.701Z,100328.88
2023-03-01T06:32:08.533Z,100340.97
2023-03-01T06:34:38.297Z,100319.72
2023-03-01T06:37:08.065Z,100298.28
2023-03-01T06:39:37.800Z,100277.00
2023-03-01T06:42:07.463Z,100332.31
2023-03-01T06:44:37.456Z,100322.25
2023-03-01T06:47:07.549Z,100322.25
2023-03-01T06:49:37.172Z,100320.75
2023-03-01T06:52:06.967Z,100328.00
2023-03-01T06:54:36.622Z,100330.44
2023-03-01T06:57:06.604Z,100318.34
2023-03-01T06:59:36.310Z,100327.97
2023-03-01T07:02:05.944Z,100331.97
2023-03-01T07:04:35.705Z,100349.69
2023-03-01T07:07:05.349Z,100337.59
2023-03-01T07:09:35.213Z,100323.41
2023-03-01T07:12:05.432Z,100344.06
2023-03-01T07:14:35.200Z,100342.44
2023-03-01T07:17:05.522Z,100361.75
2023-03-01T07:19:35.478Z,100354.91
2023-03-01T07:22:06.995Z,100353.34
2023-03-01T07:24:36.948Z,100358.59
2023-03-01T07:27:06.578Z,100352.19
2023-03-01T07:29:36.399Z,100363.94
2023-03-01T07:32:07.368Z,100326.41
2023-03-01T07:34:37.077Z,100370.81
2023-03-01T07:37:06.894Z,100322.81
2023-03-01T07:39:36.492Z,100335.38
2023-03-01T07:42:06.172Z,100359.22
2023-03-01T07:44:37.032Z,100372.13
2023-03-01T07:47:07.779Z,100358.84
2023-03-01T07:49:38.025Z,100357.66
2023-03-01T07:52:07.789Z,100359.25
2023-03-01T07:54:37.579Z,100363.34
2023-03-01T07:57:07.261Z,100365.41
2023-03-01T07:59:36.924Z,100367.81
2023-03-01T08:02:06.748Z,100312.97
2023-03-01T08:04:36.477Z,100375.47
2023-03-01T08:07:08.721Z,100385.53
2023-03-01T08:09:41.834Z,100386.34
2023-03-01T08:12:11.821Z,100373.84
2023-03-01T08:14:41.458Z,100384.72
2023-03-01T08:17:11.073Z,100385.53
2023-03-01T08:19:40.731Z,100378.28
2023-03-01T08:22:10.396Z,100402.44
2023-03-01T08:24:40.113Z,100386.34
2023-03-01T08:27:09.835Z,100385.53
2023-03-01T08:29:40.146Z,100396.00
2023-03-01T08:32:09.988Z,100400.03
2023-03-01T08:34:40.501Z,100402.44
2023-03-01T08:37:12.396Z,100412.91
2023-03-01T08:39:42.120Z,100387.16
2023-03-01T08:42:13.037Z,100390.78
2023-03-01T08:44:43.134Z,100385.53
2023-03-01T08:47:14.071Z,100357.25
2023-03-01T08:49:44.719Z,100390.38
2023-03-01T08:52:14.416Z,100398.41
2023-03-01T08:54:44.029Z,100398.41
2023-03-01T08:57:15.291Z,100395.19
2023-03-01T08:59:44.805Z,100393.16
2023-03-01T09:02:20.347Z,100405.63
2023-03-01T09:04:50.026Z,100409.22
2023-03-01T09:07:19.727Z,100420.06
2023-03-01T09:09:49.490Z,100417.66
2023-03-01T09:12:19.125Z,100432.53
2023-03-01T09:14:48.770Z,100431.31
2023-03-01T09:17:18.392Z,100444.19
2023-03-01T09:19:48.207Z,100444.19
2023-03-01T09:22:17.857Z,100447.38
2023-03-01T09:24:47.645Z,100441.75
2023-03-01T09:27:17.340Z,100456.19
2023-03-01T09:29:47.059Z,100460.19
2023-03-01T09:32:16.889Z,100469.84
2023-03-01T09:35:06.901Z,100466.22
2023-03-01T09:37:38.428Z,100471.03
2023-03-01T09:40:10.506Z,100467.00
2023-03-01T09:43:01.335Z,100487.50
2023-03-01T09:45:41.188Z,100481.84
2023-03-01T09:48:20.681Z,100495.09
2023-03-01T09:50:50.573Z,100502.28
2023-03-01T09:53:25.077Z,100503.03
2023-03-01T09:56:13.433Z,100507.84
2023-03-01T09:58:56.992Z,100523.09
2023-03-01T10:01:37.837Z,100532.75
2023-03-01T10:04:25.633Z,100527.50
2023-03-01T10:07:34.796Z,100531.91
2023-03-01T10:10:07.778Z,100533.06
2023-03-01T10:12:43.139Z,100537.88
2023-03-01T10:15:21.698Z,100548.28
2023-03-01T10:18:05.684Z,100549.03
2023-03-01T10:20:58.411Z,100565.19
2023-03-01T10:23:30.789Z,100545.75
2023-03-01T10:26:50.750Z,100573.63
2023-03-01T10:29:23.688Z,100574.38
2023-03-01T10:31:56.268Z,100547.25
2023-03-01T10:34:32.280Z,100576.69
2023-03-01T10:37:16.506Z,100553.94
2023-03-01T10:40:10.877Z,100587.13
2023-03-01T10:42:51.880Z,100582.25
2023-03-01T10:45:42.663Z,100586.69
2023-03-01T10:48:26.352Z,100594.72
2023-03-01T10:51:02.061Z,100589.88
2023-03-01T10:53:50.831Z,100593.09
2023-03-01T10:56:21.346Z,100603.50
2023-03-01T10:59:07.133Z,100593.81
2023-03-01T11:01:38.422Z,100610.69
2023-03-01T11:04:10.800Z,100620.31
2023-03-01T11:06:42.881Z,100612.63
2023-03-01T11:09:27.193Z,100621.44
2023-03-01T11:11:59.051Z,100613.41
2023-03-01T11:14:32.206Z,100626.22
2023-03-01T11:17:03.425Z,100623.34
2023-03-01T11:19:34.183Z,100629.78
2023-03-01T11:22:10.761Z,100629.75
2023-03-01T11:25:10.928Z,100589.94
2023-03-01T11:27:46.222Z,100646.63
2023-03-01T11:30:31.753Z,100591.56
2023-03-01T11:33:20.802Z,100635.28
2023-03-01T11:36:03.728Z,100639.25
2023-03-01T11:38:37.940Z,100637.25
2023-03-01T11:41:24.088Z,100638.41
2023-03-01T11:44:24.475Z,100648.03
2023-03-01T11:47:20.349Z,100641.59
2023-03-01T11:50:02.193Z,100643.53
2023-03-01T11:52:32.086Z,100644.72
2023-03-01T11:55:39.778Z,100643.84
2023-03-01T11:58:12.387Z,100645.38
2023-03-01T12:01:09.537Z,100648.59
2023-03-01T12:03:52.166Z,100655.25
2023-03-01T12:06:34.198Z,100667.72
2023-03-01T12:09:33.078Z,100664.94
2023-03-01T12:12:29.880Z,100664.88
2023-03-01T12:15:36.244Z,100668.88
2023-03-01T12:18:34.579Z,100674.88
2023-03-01T12:21:13.730Z,100673.19
2023-03-01T12:24:13.306Z,100667.13
2023-03-01T12:26:45.986Z,100666.66
2023-03-01T12:29:31.612Z,100666.69
2023-03-01T12:32:01.352Z,100669.84
2023-03-01T12:34:52.170Z,100675.00
2023-03-01T12:37:53.009Z,100685.38
2023-03-01T12:40:23.438Z,100691.75
2023-03-01T12:43:00.122Z,100692.56
2023-03-01T12:46:01.809Z,100703.31
2023-03-01T12:49:06.678Z,100695.69
2023-03-01T12:51:39.116Z,100705.75
2023-03-01T12:54:36.591Z,100703.69
2023-03-01T12:57:39.526Z,100700.50
2023-03-01T13:00:34.184Z,100708.50
2023-03-01T13:03:33.740Z,100689.22
2023-03-01T13:06:21.378Z,100722.91
2023-03-01T13:08:56.902Z,100721.66
2023-03-01T13:11:27.202Z,100724.09
2023-03-01T13:14:22.141Z,100711.25
2023-03-01T13:16:53.291Z,100717.59
2023-03-01T13:19:25.665Z,100717.25
2023-03-01T13:21:57.319Z,100725.16
2023-03-01T13:24:43.272Z,100718.72
2023-03-01T13:27:18.734Z,100723.97
2023-03-01T13:29:53.369Z,100690.66
2023-03-01T13:32:41.608Z,100730.38
2023-03-01T13:35:21.756Z,100731.94
2023-03-01T13:37:51.500Z,100733.50
2023-03-01T13:40:25.142Z,100725.09
2023-03-01T13:43:05.119Z,100726.28
2023-03-01T13:45:43.501Z,100732.69
2023-03-01T13:48:31.437Z,100745.50
2023-03-01T13:51:10.738Z,100735.81
2023-03-01T13:53:45.838Z,100739.81
2023-03-01T13:56:23.037Z,100741.81
2023-03-01T13:59:14.217Z,100743.44
2023-03-01T14:01:44.249Z,100748.75
2023-03-01T14:04:28.503Z,100745.50
2023-03-01T14:07:22.639Z,100754.97
2023-03-01T14:09:56.740Z,100758.97
2023-03-01T14:12:32.292Z,100755.72
2023-03-01T14:15:07.687Z,100760.53
2023-03-01T14:18:01.405Z,100760.91
2023-03-01T14:20:40.739Z,100769.28
2023-03-01T14:23:16.707Z,100771.31
2023-03-01T14:25:55.621Z,100778.94
2023-03-01T14:28:29.651Z,100766.09
2023-03-01T14:31:01.657Z,100726.16
2023-03-01T14:33:39.654Z,100764.75
2023-03-01T14:36:15.021Z,100775.25
2023-03-01T14:38:50.435Z,100765.66
2023-03-01T14:41:26.122Z,100765.94
2023-03-01T14:44:04.433Z,100773.47
2023-03-01T14:46:48.526Z,100733.16
2023-03-01T14:49:24.580Z,100774.22
2023-03-01T14:52:09.584Z,100764.19
2023-03-01T14:54:49.363Z,100763.38
2023-03-01T14:57:24.146Z,100766.09
2023-03-01T15:00:00.334Z,100764.94
2023-03-01T15:02:32.288Z,100771.28
2023-03-01T15:05:08.620Z,100764.94
2023-03-01T15:07:44.924Z,100768.84
2023-03-01T15:10:25.980Z,100764.84
2023-03-01T15:12:56.121Z,100768.75
2023-03-01T15:15:33.958Z,100763.13
2023-03-01T15:18:18.769Z,100767.94
2023-03-01T15:20:50.232Z,100767.13
2023-03-01T15:23:30.434Z,100772.03
2023-03-01T15:26:01.268Z,100769.66
2023-03-01T15:28:35.810Z,100777.16
2023-03-01T15:31:27.176Z,100769.50
2023-03-01T15:34:24.650Z,100779.16
2023-03-01T15:36:56.021Z,100781.16
2023-03-01T15:39:42.423Z,100784.25
2023-03-01T15:42:39.002Z,100772.84
2023-03-01T15:45:23.401Z,100802.44
2023-03-01T15:48:03.974Z,100804.53
2023-03-01T15:50:37.849Z,100802.44
2023-03-01T15:53:16.863Z,100800.00
2023-03-01T15:55:48.037Z,100806.03
2023-03-01T15:58:21.745Z,100804.78
2023-03-01T16:01:01.085Z,100801.53
2023-03-01T16:03:32.356Z,100811.22
2023-03-01T16:06:02.982Z,100808.34
2023-03-01T16:08:32.569Z,100817.13
2023-03-01T16:11:02.416Z,100820.75
2023-03-01T16:13:32.464Z,100827.16
2023-03-01T16:16:02.364Z,100826.34
2023-03-01T16:18:32.488Z,100831.53
2023-03-01T16:21:02.989Z,100831.47
2023-03-01T16:23:32.628Z,100817.91
2023-03-01T16:26:05.223Z,100834.25
2023-03-01T16:28:34.919Z,100839.78
2023-03-01T16:31:04.796Z,100839.03
2023-03-01T16:33:36.430Z,100795.00
2023-03-01T16:36:16.538Z,100826.19
2023-03-01T16:38:46.226Z,100833.34
2023-03-01T16:41:18.595Z,100833.34
2023-03-01T16:43:49.263Z,100842.94
2023-03-01T16:46:25.908Z,100842.13
2023-03-01T16:48:56.292Z,100843.31
2023-03-01T16:51:27.040Z,100866.94
2023-03-01T16:53:56.710Z,100860.16
2023-03-01T16:56:26.317Z,100840.06
2023-03-01T16:58:56.308Z,100837.25
2023-03-01T17:01:28.350Z,100842.88
2023-03-01T17:03:57.934Z,100850.09
2023-03-01T17:06:29.288Z,100857.28
2023-03-01T17:08:59.812Z,100851.72
2023-03-01T17:11:29.840Z,100869.38
2023-03-01T17:13:59.801Z,100856.09
2023-03-01T17:16:29.856Z,100862.16
2023-03-01T17:18:59.548Z,100867.69
2023-03-01T17:21:29.563Z,100853.22
2023-03-01T17:24:00.991Z,100859.56
2023-03-01T17:26:34.317Z,100849.22
2023-03-01T17:29:03.788Z,100855.94
2023-03-01T17:31:34.652Z,100855.13
2023-03-01T17:34:04.575Z,100856.31
2023-03-01T17:36:36.085Z,100845.09
2023-03-01T17:39:05.671Z,100856.66
2023-03-01T17:41:35.266Z,100840.94
2023-03-01T17:44:04.919Z,100834.16
2023-03-01T17:46:34.621Z,100840.13
2023-03-01T17:49:04.331Z,100847.38
2023-03-01T17:51:34.205Z,100842.13
2023-03-01T17:54:03.966Z,100860.56
2023-03-01T17:56:36.660Z,100844.94
2023-03-01T17:59:08.328Z,100845.38
2023-03-01T18:01:38.100Z,100839.31
2023-03-01T18:04:07.834Z,100847.00
2023-03-01T18:06:39.555Z,100839.75
2023-03-01T18:09:10.193Z,100831.63
2023-03-01T18:11:39.899Z,100840.06
2023-03-01T18:14:09.874Z,100833.72
2023-03-01T18:16:41.248Z,100842.50
2023-03-01T18:19:13.178Z,100836.06
2023-03-01T18:21:42.897Z,100845.66
2023-03-01T18:24:12.993Z,100850.91
2023-03-01T18:26:42.601Z,100850.09
2023-03-01T18:29:12.235Z,100845.22
2023-03-01T18:31:42.149Z,100860.06
2023-03-01T18:34:14.394Z,100846.84
2023-03-01T18:36:47.996Z,100865.56
2023-03-01T18:39:22.231Z,100801.75
2023-03-01T18:41:52.231Z,100847.09
2023-03-01T18:44:21.905Z,100845.22
2023-03-01T18:46:51.649Z,100853.53
2023-03-01T18:49:21.713Z,100854.69
2023-03-01T18:51:52.383Z,100867.91
2023-03-01T18:54:22.134Z,100859.06
2023-03-01T18:56:51.878Z,100866.28
2023-03-01T18:59:21.436Z,100858.69
2023-03-01T19:01:51.161Z,100864.28
2023-03-01T19:04:20.818Z,100871.91
2023-03-01T19:06:50.521Z,100866.22
2023-03-01T19:09:20.128Z,100872.63
2023-03-01T19:11:49.856Z,100879.03
2023-03-01T19:14:19.449Z,100867.03
2023-03-01T19:16:49.034Z,100866.56
2023-03-01T19:19:18.650Z,100865.41
2023-03-01T19:21:59.423Z,100869.81
2023-03-01T19:24:34.752Z,100876.59
2023-03-01T19:27:04.809Z,100878.25
2023-03-01T19:29:34.522Z,100874.25
2023-03-01T19:32:04.282Z,100873.53
2023-03-01T19:34:34.520Z,100872.25
2023-03-01T19:37:04.350Z,100876.16
2023-03-01T19:39:33.930Z,100863.16
2023-03-01T19:42:03.623Z,100875.72
2023-03-01T19:44:33.544Z,100885.31
2023-03-01T19:47:03.173Z,100886.94
2023-03-01T19:49:34.314Z,100888.84
2023-03-01T19:52:04.009Z,100824.91
2023-03-01T19:54:33.727Z,100887.66
2023-03-01T19:57:03.499Z,100878.72
2023-03-01T19:59:33.148Z,100881.16
2023-03-01T20:02:03.062Z,100874.25
2023-03-01T20:04:32.704Z,100881.16
2023-03-01T20:07:02.307Z,100889.13
2023-03-01T20:09:31.916Z,100899.59
2023-03-01T20:12:01.606Z,100872.72
2023-03-01T20:14:31.212Z,100915.88
2023-03-01T20:17:00.816Z,100896.69
2023-03-01T20:19:30.495Z,100880.44
2023-03-01T20:22:00.142Z,100914.84
2023-03-01T20:24:29.977Z,100918.34
2023-03-01T20:27:03.316Z,100932.72
2023-03-01T20:29:33.462Z,100924.59
2023-03-01T20:32:03.383Z,100926.56
2023-03-01T20:34:33.086Z,100941.41
2023-03-01T20:37:04.324Z,100939.69
2023-03-01T20:39:34.088Z,100929.34
2023-03-01T20:42:03.708Z,100946.84
2023-03-01T20:44:33.263Z,100952.34
2023-03-01T20:47:03.397Z,100955.53
2023-03-01T20:49:33.068Z,100948.22
2023-03-01T20:52:02.772Z,100947.31
2023-03-01T20:54:32.421Z,100927.94
2023-03-01T20:57:02.024Z,100932.66
2023-03-01T20:59:31.604Z,100935.00
2023-03-01T21:02:01.195Z,100955.38
2023-03-01T21:04:30.761Z,100971.78
2023-03-01T21:07:00.373Z,100958.03
2023-03-01T21:09:30.008Z,100959.56
2023-03-01T21:11:59.615Z,100966.72
2023-03-01T21:14:30.235Z,100967.91
2023-03-01T21:16:59.770Z,100968.50
2023-03-01T21:19:29.388Z,100967.63
2023-03-01T21:21:58.982Z,100965.97
2023-03-01T21:24:28.654Z,100961.47
2023-03-01T21:26:58.300Z,100958.22
2023-03-01T21:29:28.039Z,100968.25
2023-03-01T21:31:57.857Z,100963.81
2023-03-01T21:34:27.759Z,100968.16
2023-03-01T21:36:57.381Z,100978.47
2023-03-01T21:39:30.672Z,100988.44
2023-03-01T21:42:02.631Z,100994.03
2023-03-01T21:44:33.759Z,100982.47
2023-03-01T21:47:03.434Z,100980.38
2023-03-01T21:49:33.073Z,100999.91
2023-03-01T21:52:02.736Z,100999.09
2023-03-01T21:54:33.631Z,101005.03
2023-03-01T21:57:04.051Z,101011.81
2023-03-01T21:59:33.826Z,101013.81
2023-03-01T22:02:03.446Z,101025.72
2023-03-01T22:04:33.083Z,101022.47
2023-03-01T22:07:02.698Z,101021.66
2023-03-01T22:09:33.610Z,101025.63
2023-03-01T22:12:03.854Z,101027.16
2023-03-01T22:14:34.496Z,101021.56
2023-03-01T22:17:04.224Z,100989.56
2023-03-01T22:19:33.938Z,101027.88
2023-03-01T22:22:03.566Z,101035.47
2023-03-01T22:24:33.166Z,101030.69
2023-03-01T22:27:02.879Z,101043.41
2023-03-01T22:29:32.803Z,101039.81
2023-03-01T22:32:03.198Z,101042.97
2023-03-01T22:34:32.852Z,101053.38
2023-03-01T22:37:02.465Z,101063.75
2023-03-01T22:39:32.198Z,101059.78
2023-03-01T22:42:01.846Z,101059.78
2023-03-01T22:44:31.404Z,101059.78
2023-03-01T22:47:01.206Z,101072.97
2023-03-01T22:49:31.042Z,101078.22
2023-03-01T22:52:01.332Z,101091.06
2023-03-01T22:54:31.271Z,101080.56
2023-03-01T22:57:00.943Z,101080.56
2023-03-01T22:59:30.503Z,101085.00
2023-03-01T23:02:00.294Z,101089.44
2023-03-01T23:04:30.197Z,101087.81
2023-03-01T23:06:59.932Z,101084.56
2023-03-01T23:09:35.924Z,101084.56
2023-03-01T23:12:10.810Z,101084.44
2023-03-01T23:14:41.983Z,101057.44
2023-03-01T23:17:12.437Z,101102.09
2023-03-01T23:19:42.169Z,101108.84
2023-03-01T23:22:11.844Z,101115.19
2023-03-01T23:24:41.635Z,101095.13
2023-03-01T23:27:11.227Z,101115.63
2023-03-01T23:29:40.818Z,101111.56
2023-03-01T23:32:11.216Z,101120.41
2023-03-01T23:34:45.437Z,101134.09
2023-03-01T23:37:15.090Z,101132.00
2023-03-01T23:39:44.714Z,101144.38
2023-03-01T23:42:14.301Z,101143.19
2023-03-01T23:44:43.948Z,101150.44
2023-03-01T23:47:13.587Z,101153.69
2023-03-01T23:49:43.285Z,101161.66
2023-03-01T23:52:18.600Z,101169.34
2023-03-01T23:54:48.344Z,101157.66
2023-03-01T23:57:18.000Z,101134.25
2023-03-01T23:59:47.732Z,101174.13
